Terminal Aerodrome Forecast
Issued by NWS Twin Cities, MN

Home | Current Version | Previous Version | Text Only | Print | Product List | Glossary Off
Versions: 1 2 3 4 5 6 7 8 9 10 11 12 13 14 15 16 17 18

719
FTUS43 KMPX 071020 AAA
TAFSTC
TAF AMD
KSTC 071020Z 0710/0806 26015G22KT P6SM SCT025 OVC040
      TEMPO 0710/0714 BKN025
     FM071400 28016G23KT P6SM OVC030
     FM072000 29020G32KT 2SM -SHSN BLSN OVC015=

USA.gov is the U.S. government's official web portal to all federal, state and local government web resources and services.